sensor_id;sensor_type;location;lat;lon;timestamp;P1;durP1;ratioP1;P2;durP2;ratioP2
18395;SDS011;76377;45.194;5.734;2024-03-02T00:01:37;4.20;;;3.80;;
18395;SDS011;76377;45.194;5.734;2024-03-02T00:04:04;4.47;;;3.80;;
18395;SDS011;76377;45.194;5.734;2024-03-02T00:06:33;4.27;;;3.80;;
18395;SDS011;76377;45.194;5.734;2024-03-02T00:09:00;7.80;;;7.00;;
18395;SDS011;76377;45.194;5.734;2024-03-02T00:11:26;11.63;;;9.13;;
18395;SDS011;76377;45.194;5.734;2024-03-02T00:13:54;12.63;;;9.20;;
18395;SDS011;76377;45.194;5.734;2024-03-02T00:16:22;11.97;;;10.53;;
18395;SDS011;76377;45.194;5.734;2024-03-02T00:18:50;13.20;;;10.73;;
18395;SDS011;76377;45.194;5.734;2024-03-02T00:21:17;12.93;;;10.93;;
18395;SDS011;76377;45.194;5.734;2024-03-02T00:23:45;12.43;;;10.97;;
18395;SDS011;76377;45.194;5.734;2024-03-02T00:26:12;11.73;;;10.17;;
18395;SDS011;76377;45.194;5.734;2024-03-02T00:28:42;13.23;;;10.37;;
18395;SDS011;76377;45.194;5.734;2024-03-02T00:31:11;11.97;;;10.43;;
18395;SDS011;76377;45.194;5.734;2024-03-02T00:33:40;12.63;;;10.30;;
18395;SDS011;76377;45.194;5.734;2024-03-02T00:36:09;12.17;;;10.77;;
18395;SDS011;76377;45.194;5.734;2024-03-02T00:38:42;15.10;;;10.60;;
18395;SDS011;76377;45.194;5.734;2024-03-02T00:41:15;10.97;;;9.63;;
18395;SDS011;76377;45.194;5.734;2024-03-02T00:43:48;10.43;;;9.07;;
18395;SDS011;76377;45.194;5.734;2024-03-02T00:46:23;11.97;;;9.50;;
18395;SDS011;76377;45.194;5.734;2024-03-02T00:48:55;10.57;;;9.47;;
18395;SDS011;76377;45.194;5.734;2024-03-02T00:51:25;10.33;;;9.00;;
18395;SDS011;76377;45.194;5.734;2024-03-02T00:53:52;10.90;;;9.70;;
18395;SDS011;76377;45.194;5.734;2024-03-02T00:56:22;9.77;;;8.80;;
18395;SDS011;76377;45.194;5.734;2024-03-02T00:58:49;9.70;;;8.70;;
18395;SDS011;76377;45.194;5.734;2024-03-02T01:01:17;10.83;;;9.73;;
18395;SDS011;76377;45.194;5.734;2024-03-02T01:03:45;12.30;;;9.90;;
18395;SDS011;76377;45.194;5.734;2024-03-02T01:06:13;10.50;;;9.40;;
18395;SDS011;76377;45.194;5.734;2024-03-02T01:08:41;14.37;;;9.80;;
18395;SDS011;76377;45.194;5.734;2024-03-02T01:11:08;11.73;;;8.63;;
18395;SDS011;76377;45.194;5.734;2024-03-02T01:13:35;11.43;;;9.93;;
18395;SDS011;76377;45.194;5.734;2024-03-02T01:16:03;10.20;;;8.87;;
18395;SDS011;76377;45.194;5.734;2024-03-02T01:18:30;9.60;;;8.30;;
18395;SDS011;76377;45.194;5.734;2024-03-02T01:20:57;10.53;;;9.17;;
18395;SDS011;76377;45.194;5.734;2024-03-02T01:23:26;9.47;;;8.57;;
18395;SDS011;76377;45.194;5.734;2024-03-02T01:25:53;10.10;;;8.27;;
18395;SDS011;76377;45.194;5.734;2024-03-02T01:28:20;11.00;;;8.83;;
18395;SDS011;76377;45.194;5.734;2024-03-02T01:30:47;10.17;;;9.17;;
18395;SDS011;76377;45.194;5.734;2024-03-02T01:33:15;11.30;;;8.73;;
18395;SDS011;76377;45.194;5.734;2024-03-02T01:35:43;9.23;;;8.33;;
18395;SDS011;76377;45.194;5.734;2024-03-02T01:38:10;11.93;;;8.50;;
18395;SDS011;76377;45.194;5.734;2024-03-02T01:40:38;11.33;;;8.60;;
18395;SDS011;76377;45.194;5.734;2024-03-02T01:43:06;9.53;;;7.97;;
18395;SDS011;76377;45.194;5.734;2024-03-02T01:45:33;11.03;;;8.80;;
18395;SDS011;76377;45.194;5.734;2024-03-02T01:48:03;9.97;;;8.90;;
18395;SDS011;76377;45.194;5.734;2024-03-02T01:50:31;10.87;;;8.90;;
18395;SDS011;76377;45.194;5.734;2024-03-02T01:52:59;10.40;;;9.00;;
18395;SDS011;76377;45.194;5.734;2024-03-02T01:55:28;12.13;;;9.10;;
18395;SDS011;76377;45.194;5.734;2024-03-02T01:57:57;12.80;;;8.93;;
18395;SDS011;76377;45.194;5.734;2024-03-02T02:00:24;9.10;;;8.17;;
18395;SDS011;76377;45.194;5.734;2024-03-02T02:02:51;11.13;;;9.60;;
18395;SDS011;76377;45.194;5.734;2024-03-02T02:05:19;14.97;;;8.73;;
18395;SDS011;76377;45.194;5.734;2024-03-02T02:07:46;11.10;;;9.03;;
18395;SDS011;76377;45.194;5.734;2024-03-02T02:10:13;9.60;;;8.60;;
18395;SDS011;76377;45.194;5.734;2024-03-02T02:12:40;12.47;;;9.43;;
18395;SDS011;76377;45.194;5.734;2024-03-02T02:15:28;10.47;;;9.37;;
18395;SDS011;76377;45.194;5.734;2024-03-02T02:17:56;9.67;;;8.63;;
18395;SDS011;76377;45.194;5.734;2024-03-02T02:20:24;10.53;;;9.33;;
18395;SDS011;76377;45.194;5.734;2024-03-02T02:22:57;11.23;;;9.30;;
18395;SDS011;76377;45.194;5.734;2024-03-02T02:25:24;10.17;;;9.17;;
18395;SDS011;76377;45.194;5.734;2024-03-02T02:27:52;10.67;;;9.50;;
18395;SDS011;76377;45.194;5.734;2024-03-02T02:30:20;11.77;;;9.23;;
18395;SDS011;76377;45.194;5.734;2024-03-02T02:32:47;10.63;;;9.57;;
18395;SDS011;76377;45.194;5.734;2024-03-02T02:35:14;11.20;;;9.70;;
18395;SDS011;76377;45.194;5.734;2024-03-02T02:37:41;11.97;;;9.33;;
18395;SDS011;76377;45.194;5.734;2024-03-02T02:40:11;10.40;;;8.87;;
18395;SDS011;76377;45.194;5.734;2024-03-02T02:42:39;10.63;;;9.30;;
18395;SDS011;76377;45.194;5.734;2024-03-02T02:45:06;10.63;;;9.43;;
18395;SDS011;76377;45.194;5.734;2024-03-02T02:47:33;11.60;;;9.13;;
18395;SDS011;76377;45.194;5.734;2024-03-02T02:50:02;9.40;;;8.50;;
18395;SDS011;76377;45.194;5.734;2024-03-02T02:52:32;9.63;;;8.63;;
18395;SDS011;76377;45.194;5.734;2024-03-02T02:55:03;11.87;;;9.73;;
18395;SDS011;76377;45.194;5.734;2024-03-02T02:57:32;10.00;;;9.00;;
18395;SDS011;76377;45.194;5.734;2024-03-02T03:00:01;12.00;;;9.03;;
18395;SDS011;76377;45.194;5.734;2024-03-02T03:02:36;9.77;;;8.80;;
18395;SDS011;76377;45.194;5.734;2024-03-02T03:05:04;10.70;;;9.37;;
18395;SDS011;76377;45.194;5.734;2024-03-02T03:07:32;10.70;;;9.60;;
18395;SDS011;76377;45.194;5.734;2024-03-02T03:10:00;9.67;;;8.67;;
18395;SDS011;76377;45.194;5.734;2024-03-02T03:12:28;11.83;;;8.43;;
18395;SDS011;76377;45.194;5.734;2024-03-02T03:14:58;9.43;;;8.43;;
18395;SDS011;76377;45.194;5.734;2024-03-02T03:17:25;9.57;;;8.67;;
18395;SDS011;76377;45.194;5.734;2024-03-02T03:19:52;9.63;;;8.73;;
18395;SDS011;76377;45.194;5.734;2024-03-02T03:22:18;10.00;;;9.00;;
18395;SDS011;76377;45.194;5.734;2024-03-02T03:24:45;10.67;;;9.57;;
18395;SDS011;76377;45.194;5.734;2024-03-02T03:27:13;9.77;;;8.67;;
18395;SDS011;76377;45.194;5.734;2024-03-02T03:29:40;12.00;;;9.57;;
18395;SDS011;76377;45.194;5.734;2024-03-02T03:32:08;12.50;;;9.33;;
18395;SDS011;76377;45.194;5.734;2024-03-02T03:34:35;10.40;;;9.23;;
18395;SDS011;76377;45.194;5.734;2024-03-02T03:37:02;10.33;;;9.33;;
18395;SDS011;76377;45.194;5.734;2024-03-02T03:39:30;9.33;;;8.40;;
18395;SDS011;76377;45.194;5.734;2024-03-02T03:41:57;9.60;;;8.60;;
18395;SDS011;76377;45.194;5.734;2024-03-02T03:44:24;9.30;;;8.37;;
18395;SDS011;76377;45.194;5.734;2024-03-02T03:46:51;9.63;;;8.50;;
18395;SDS011;76377;45.194;5.734;2024-03-02T03:49:19;9.43;;;8.50;;
18395;SDS011;76377;45.194;5.734;2024-03-02T03:51:46;10.27;;;9.17;;
18395;SDS011;76377;45.194;5.734;2024-03-02T03:54:13;9.00;;;8.10;;
18395;SDS011;76377;45.194;5.734;2024-03-02T03:56:40;9.60;;;8.60;;
18395;SDS011;76377;45.194;5.734;2024-03-02T03:59:07;9.83;;;8.33;;
18395;SDS011;76377;45.194;5.734;2024-03-02T04:01:34;9.63;;;8.73;;
18395;SDS011;76377;45.194;5.734;2024-03-02T04:04:01;11.07;;;9.67;;
18395;SDS011;76377;45.194;5.734;2024-03-02T04:06:30;10.17;;;9.13;;
18395;SDS011;76377;45.194;5.734;2024-03-02T04:08:57;9.80;;;8.80;;
18395;SDS011;76377;45.194;5.734;2024-03-02T04:11:24;10.00;;;9.00;;
18395;SDS011;76377;45.194;5.734;2024-03-02T04:13:51;10.50;;;9.23;;
18395;SDS011;76377;45.194;5.734;2024-03-02T04:16:19;10.77;;;9.67;;
18395;SDS011;76377;45.194;5.734;2024-03-02T04:18:46;12.07;;;9.03;;
18395;SDS011;76377;45.194;5.734;2024-03-02T04:21:13;10.03;;;9.03;;
18395;SDS011;76377;45.194;5.734;2024-03-02T04:23:41;10.23;;;9.13;;
18395;SDS011;76377;45.194;5.734;2024-03-02T04:26:08;10.50;;;9.50;;
18395;SDS011;76377;45.194;5.734;2024-03-02T04:28:35;8.77;;;7.97;;
18395;SDS011;76377;45.194;5.734;2024-03-02T04:31:03;11.07;;;8.47;;
18395;SDS011;76377;45.194;5.734;2024-03-02T04:33:30;10.07;;;8.67;;
18395;SDS011;76377;45.194;5.734;2024-03-02T04:35:57;9.90;;;8.83;;
18395;SDS011;76377;45.194;5.734;2024-03-02T04:38:24;9.57;;;8.40;;
18395;SDS011;76377;45.194;5.734;2024-03-02T04:40:52;9.20;;;8.40;;
18395;SDS011;76377;45.194;5.734;2024-03-02T04:43:19;10.37;;;9.27;;
18395;SDS011;76377;45.194;5.734;2024-03-02T04:45:46;10.20;;;9.20;;
18395;SDS011;76377;45.194;5.734;2024-03-02T04:48:13;10.20;;;9.10;;
18395;SDS011;76377;45.194;5.734;2024-03-02T04:50:40;11.90;;;8.70;;
18395;SDS011;76377;45.194;5.734;2024-03-02T04:53:07;10.10;;;9.10;;
18395;SDS011;76377;45.194;5.734;2024-03-02T04:55:34;9.30;;;8.40;;
18395;SDS011;76377;45.194;5.734;2024-03-02T04:58:19;10.17;;;9.10;;
18395;SDS011;76377;45.194;5.734;2024-03-02T05:00:46;10.10;;;8.47;;
18395;SDS011;76377;45.194;5.734;2024-03-02T05:03:13;9.90;;;8.90;;
18395;SDS011;76377;45.194;5.734;2024-03-02T05:05:40;9.90;;;8.90;;
18395;SDS011;76377;45.194;5.734;2024-03-02T05:08:07;9.93;;;8.93;;
18395;SDS011;76377;45.194;5.734;2024-03-02T05:10:37;9.40;;;8.50;;
18395;SDS011;76377;45.194;5.734;2024-03-02T05:13:04;10.40;;;8.90;;
18395;SDS011;76377;45.194;5.734;2024-03-02T05:15:32;9.83;;;8.93;;
18395;SDS011;76377;45.194;5.734;2024-03-02T05:17:59;9.20;;;8.30;;
18395;SDS011;76377;45.194;5.734;2024-03-02T05:20:28;11.00;;;9.57;;
18395;SDS011;76377;45.194;5.734;2024-03-02T05:22:55;10.77;;;9.63;;
18395;SDS011;76377;45.194;5.734;2024-03-02T05:25:22;9.93;;;8.93;;
18395;SDS011;76377;45.194;5.734;2024-03-02T05:27:49;10.47;;;8.70;;
18395;SDS011;76377;45.194;5.734;2024-03-02T05:30:16;11.17;;;9.43;;
18395;SDS011;76377;45.194;5.734;2024-03-02T05:32:44;11.10;;;9.10;;
18395;SDS011;76377;45.194;5.734;2024-03-02T05:35:11;10.57;;;9.10;;
18395;SDS011;76377;45.194;5.734;2024-03-02T05:37:39;9.60;;;8.60;;
18395;SDS011;76377;45.194;5.734;2024-03-02T05:40:06;10.57;;;8.93;;
18395;SDS011;76377;45.194;5.734;2024-03-02T05:42:34;8.70;;;7.90;;
18395;SDS011;76377;45.194;5.734;2024-03-02T05:45:01;9.90;;;8.90;;
18395;SDS011;76377;45.194;5.734;2024-03-02T05:47:28;9.00;;;8.10;;
18395;SDS011;76377;45.194;5.734;2024-03-02T05:49:56;12.50;;;8.93;;
18395;SDS011;76377;45.194;5.734;2024-03-02T05:52:23;10.77;;;9.10;;
18395;SDS011;76377;45.194;5.734;2024-03-02T05:54:50;9.90;;;8.90;;
18395;SDS011;76377;45.194;5.734;2024-03-02T05:57:17;10.70;;;9.67;;
18395;SDS011;76377;45.194;5.734;2024-03-02T05:59:59;11.60;;;9.83;;
18395;SDS011;76377;45.194;5.734;2024-03-02T06:02:26;11.40;;;9.57;;
18395;SDS011;76377;45.194;5.734;2024-03-02T06:04:54;10.27;;;9.27;;
18395;SDS011;76377;45.194;5.734;2024-03-02T06:07:24;10.33;;;9.37;;
18395;SDS011;76377;45.194;5.734;2024-03-02T06:09:51;10.40;;;9.17;;
18395;SDS011;76377;45.194;5.734;2024-03-02T06:12:18;9.67;;;8.67;;
18395;SDS011;76377;45.194;5.734;2024-03-02T06:14:45;10.03;;;9.00;;
18395;SDS011;76377;45.194;5.734;2024-03-02T06:17:12;10.20;;;9.20;;
18395;SDS011;76377;45.194;5.734;2024-03-02T06:19:39;10.33;;;9.33;;
18395;SDS011;76377;45.194;5.734;2024-03-02T06:22:06;10.83;;;8.80;;
18395;SDS011;76377;45.194;5.734;2024-03-02T06:24:37;12.77;;;11.10;;
18395;SDS011;76377;45.194;5.734;2024-03-02T06:27:04;9.93;;;8.10;;
18395;SDS011;76377;45.194;5.734;2024-03-02T06:29:32;10.03;;;8.70;;
18395;SDS011;76377;45.194;5.734;2024-03-02T06:31:59;8.83;;;7.67;;
18395;SDS011;76377;45.194;5.734;2024-03-02T06:34:26;9.17;;;8.07;;
18395;SDS011;76377;45.194;5.734;2024-03-02T06:36:53;9.97;;;8.37;;
18395;SDS011;76377;45.194;5.734;2024-03-02T06:39:21;9.07;;;8.17;;
18395;SDS011;76377;45.194;5.734;2024-03-02T06:41:49;10.10;;;9.07;;
18395;SDS011;76377;45.194;5.734;2024-03-02T06:44:16;10.90;;;8.80;;
18395;SDS011;76377;45.194;5.734;2024-03-02T06:46:44;9.33;;;8.50;;
18395;SDS011;76377;45.194;5.734;2024-03-02T06:49:11;11.03;;;9.00;;
18395;SDS011;76377;45.194;5.734;2024-03-02T06:51:38;10.50;;;9.50;;
18395;SDS011;76377;45.194;5.734;2024-03-02T06:54:05;10.83;;;9.73;;
18395;SDS011;76377;45.194;5.734;2024-03-02T06:56:32;10.90;;;9.57;;
18395;SDS011;76377;45.194;5.734;2024-03-02T06:59:00;12.00;;;10.30;;
18395;SDS011;76377;45.194;5.734;2024-03-02T07:01:27;10.07;;;8.97;;
18395;SDS011;76377;45.194;5.734;2024-03-02T07:03:54;10.83;;;9.57;;
18395;SDS011;76377;45.194;5.734;2024-03-02T07:06:21;11.23;;;9.67;;
18395;SDS011;76377;45.194;5.734;2024-03-02T07:08:48;15.70;;;9.60;;
18395;SDS011;76377;45.194;5.734;2024-03-02T07:11:15;10.03;;;9.03;;
18395;SDS011;76377;45.194;5.734;2024-03-02T07:13:43;9.93;;;8.90;;
18395;SDS011;76377;45.194;5.734;2024-03-02T07:16:11;10.03;;;8.80;;
18395;SDS011;76377;45.194;5.734;2024-03-02T07:18:58;10.40;;;8.90;;
18395;SDS011;76377;45.194;5.734;2024-03-02T07:21:26;10.57;;;9.40;;
18395;SDS011;76377;45.194;5.734;2024-03-02T07:23:54;10.27;;;9.27;;
18395;SDS011;76377;45.194;5.734;2024-03-02T07:26:21;10.80;;;9.70;;
18395;SDS011;76377;45.194;5.734;2024-03-02T07:28:48;10.63;;;9.63;;
18395;SDS011;76377;45.194;5.734;2024-03-02T07:31:17;10.00;;;9.10;;
18395;SDS011;76377;45.194;5.734;2024-03-02T07:33:44;11.97;;;8.80;;
18395;SDS011;76377;45.194;5.734;2024-03-02T07:36:12;9.60;;;8.60;;
18395;SDS011;76377;45.194;5.734;2024-03-02T07:38:40;9.90;;;8.90;;
18395;SDS011;76377;45.194;5.734;2024-03-02T07:41:07;9.57;;;8.67;;
18395;SDS011;76377;45.194;5.734;2024-03-02T07:43:36;9.50;;;8.57;;
18395;SDS011;76377;45.194;5.734;2024-03-02T07:46:03;9.93;;;8.93;;
18395;SDS011;76377;45.194;5.734;2024-03-02T07:48:32;9.87;;;8.43;;
18395;SDS011;76377;45.194;5.734;2024-03-02T07:50:59;9.50;;;8.60;;
18395;SDS011;76377;45.194;5.734;2024-03-02T07:53:27;8.93;;;8.13;;
18395;SDS011;76377;45.194;5.734;2024-03-02T07:55:54;8.57;;;7.57;;
18395;SDS011;76377;45.194;5.734;2024-03-02T07:58:26;9.37;;;8.37;;
18395;SDS011;76377;45.194;5.734;2024-03-02T08:00:54;9.17;;;7.97;;
18395;SDS011;76377;45.194;5.734;2024-03-02T08:03:21;8.43;;;7.63;;
18395;SDS011;76377;45.194;5.734;2024-03-02T08:05:50;8.73;;;7.17;;
18395;SDS011;76377;45.194;5.734;2024-03-02T08:08:17;7.80;;;7.00;;
18395;SDS011;76377;45.194;5.734;2024-03-02T08:10:44;7.83;;;7.13;;
18395;SDS011;76377;45.194;5.734;2024-03-02T08:13:11;7.17;;;6.57;;
18395;SDS011;76377;45.194;5.734;2024-03-02T08:15:39;6.43;;;5.80;;
18395;SDS011;76377;45.194;5.734;2024-03-02T08:18:06;7.87;;;6.60;;
18395;SDS011;76377;45.194;5.734;2024-03-02T08:20:34;7.73;;;6.93;;
18395;SDS011;76377;45.194;5.734;2024-03-02T08:23:03;7.23;;;6.57;;
18395;SDS011;76377;45.194;5.734;2024-03-02T08:25:30;6.40;;;5.80;;
18395;SDS011;76377;45.194;5.734;2024-03-02T08:27:57;7.60;;;6.27;;
18395;SDS011;76377;45.194;5.734;2024-03-02T08:30:24;6.37;;;5.47;;
18395;SDS011;76377;45.194;5.734;2024-03-02T08:32:51;5.87;;;5.30;;
18395;SDS011;76377;45.194;5.734;2024-03-02T08:35:18;5.33;;;4.83;;
18395;SDS011;76377;45.194;5.734;2024-03-02T08:37:47;5.10;;;4.53;;
18395;SDS011;76377;45.194;5.734;2024-03-02T08:40:16;4.70;;;4.30;;
18395;SDS011;76377;45.194;5.734;2024-03-02T08:42:43;4.43;;;4.03;;
18395;SDS011;76377;45.194;5.734;2024-03-02T08:45:10;4.80;;;4.50;;
18395;SDS011;76377;45.194;5.734;2024-03-02T08:47:38;5.03;;;4.63;;
18395;SDS011;76377;45.194;5.734;2024-03-02T08:50:05;5.00;;;4.65;;
18395;SDS011;76377;45.194;5.734;2024-03-02T08:52:33;4.22;;;3.92;;
18395;SDS011;76377;45.194;5.734;2024-03-02T08:55:00;5.25;;;4.38;;
18395;SDS011;76377;45.194;5.734;2024-03-02T08:57:29;4.90;;;4.40;;
18395;SDS011;76377;45.194;5.734;2024-03-02T08:59:56;4.53;;;4.20;;
18395;SDS011;76377;45.194;5.734;2024-03-02T09:02:24;4.10;;;3.70;;
18395;SDS011;76377;45.194;5.734;2024-03-02T09:04:51;5.40;;;4.57;;
18395;SDS011;76377;45.194;5.734;2024-03-02T09:07:18;4.68;;;4.00;;
18395;SDS011;76377;45.194;5.734;2024-03-02T09:09:46;4.10;;;3.77;;
18395;SDS011;76377;45.194;5.734;2024-03-02T09:12:13;4.25;;;3.85;;
18395;SDS011;76377;45.194;5.734;2024-03-02T09:14:42;5.60;;;4.00;;
18395;SDS011;76377;45.194;5.734;2024-03-02T09:17:09;4.30;;;3.97;;
18395;SDS011;76377;45.194;5.734;2024-03-02T09:19:37;4.60;;;4.30;;
18395;SDS011;76377;45.194;5.734;2024-03-02T09:22:04;4.10;;;3.70;;
18395;SDS011;76377;45.194;5.734;2024-03-02T09:24:32;4.40;;;4.03;;
18395;SDS011;76377;45.194;5.734;2024-03-02T09:26:59;3.97;;;3.57;;
18395;SDS011;76377;45.194;5.734;2024-03-02T09:29:26;3.63;;;3.23;;
18395;SDS011;76377;45.194;5.734;2024-03-02T09:31:55;3.73;;;3.37;;
18395;SDS011;76377;45.194;5.734;2024-03-02T09:34:22;3.40;;;3.20;;
18395;SDS011;76377;45.194;5.734;2024-03-02T09:36:50;4.60;;;3.40;;
18395;SDS011;76377;45.194;5.734;2024-03-02T09:39:18;4.20;;;3.90;;
18395;SDS011;76377;45.194;5.734;2024-03-02T09:41:45;4.27;;;3.83;;
18395;SDS011;76377;45.194;5.734;2024-03-02T09:44:14;3.50;;;3.30;;
18395;SDS011;76377;45.194;5.734;2024-03-02T09:46:41;4.63;;;4.20;;
18395;SDS011;76377;45.194;5.734;2024-03-02T09:49:10;4.10;;;3.70;;
18395;SDS011;76377;45.194;5.734;2024-03-02T09:51:37;3.80;;;3.50;;
18395;SDS011;76377;45.194;5.734;2024-03-02T09:54:05;4.50;;;4.10;;
18395;SDS011;76377;45.194;5.734;2024-03-02T09:56:34;4.60;;;4.20;;
18395;SDS011;76377;45.194;5.734;2024-03-02T09:59:01;4.77;;;4.30;;
18395;SDS011;76377;45.194;5.734;2024-03-02T10:01:28;4.60;;;4.20;;
18395;SDS011;76377;45.194;5.734;2024-03-02T10:03:55;4.83;;;4.43;;
18395;SDS011;76377;45.194;5.734;2024-03-02T10:06:27;4.80;;;4.40;;
18395;SDS011;76377;45.194;5.734;2024-03-02T10:08:55;5.10;;;4.57;;
18395;SDS011;76377;45.194;5.734;2024-03-02T10:11:25;4.80;;;4.27;;
18395;SDS011;76377;45.194;5.734;2024-03-02T10:14:03;4.90;;;4.40;;
18395;SDS011;76377;45.194;5.734;2024-03-02T10:16:33;5.13;;;4.67;;
18395;SDS011;76377;45.194;5.734;2024-03-02T10:19:17;4.80;;;4.40;;
18395;SDS011;76377;45.194;5.734;2024-03-02T10:21:47;5.40;;;4.90;;
18395;SDS011;76377;45.194;5.734;2024-03-02T10:24:16;5.17;;;4.57;;
18395;SDS011;76377;45.194;5.734;2024-03-02T10:26:43;4.67;;;4.27;;
18395;SDS011;76377;45.194;5.734;2024-03-02T10:29:10;4.63;;;4.17;;
18395;SDS011;76377;45.194;5.734;2024-03-02T10:31:38;4.27;;;3.87;;
18395;SDS011;76377;45.194;5.734;2024-03-02T10:34:06;3.23;;;2.93;;
18395;SDS011;76377;45.194;5.734;2024-03-02T10:36:34;3.87;;;2.90;;
18395;SDS011;76377;45.194;5.734;2024-03-02T10:39:03;3.50;;;3.20;;
18395;SDS011;76377;45.194;5.734;2024-03-02T10:41:32;3.23;;;3.03;;
18395;SDS011;76377;45.194;5.734;2024-03-02T10:44:01;4.33;;;3.00;;
18395;SDS011;76377;45.194;5.734;2024-03-02T10:46:29;3.33;;;2.97;;
18395;SDS011;76377;45.194;5.734;2024-03-02T10:48:57;4.17;;;3.73;;
18395;SDS011;76377;45.194;5.734;2024-03-02T10:51:25;3.50;;;3.20;;
18395;SDS011;76377;45.194;5.734;2024-03-02T10:53:54;3.67;;;3.37;;
18395;SDS011;76377;45.194;5.734;2024-03-02T10:56:26;3.57;;;2.77;;
18395;SDS011;76377;45.194;5.734;2024-03-02T10:58:55;3.90;;;3.60;;
18395;SDS011;76377;45.194;5.734;2024-03-02T11:01:29;3.20;;;3.00;;
18395;SDS011;76377;45.194;5.734;2024-03-02T11:03:59;3.40;;;3.10;;
18395;SDS011;76377;45.194;5.734;2024-03-02T11:06:31;2.90;;;2.63;;
18395;SDS011;76377;45.194;5.734;2024-03-02T11:09:05;2.50;;;2.30;;
18395;SDS011;76377;45.194;5.734;2024-03-02T11:11:40;2.83;;;2.50;;
18395;SDS011;76377;45.194;5.734;2024-03-02T11:14:10;3.83;;;2.43;;
18395;SDS011;76377;45.194;5.734;2024-03-02T11:16:43;2.60;;;2.40;;
18395;SDS011;76377;45.194;5.734;2024-03-02T11:19:12;2.80;;;2.53;;
18395;SDS011;76377;45.194;5.734;2024-03-02T11:21:40;3.00;;;2.70;;
18395;SDS011;76377;45.194;5.734;2024-03-02T11:27:02;3.10;;;2.87;;
18395;SDS011;76377;45.194;5.734;2024-03-02T11:32:16;4.80;;;2.67;;
18395;SDS011;76377;45.194;5.734;2024-03-02T11:34:45;3.00;;;2.70;;
18395;SDS011;76377;45.194;5.734;2024-03-02T11:37:14;4.10;;;2.73;;
18395;SDS011;76377;45.194;5.734;2024-03-02T11:39:43;2.40;;;2.20;;
18395;SDS011;76377;45.194;5.734;2024-03-02T11:42:13;2.50;;;2.30;;
18395;SDS011;76377;45.194;5.734;2024-03-02T11:44:42;2.70;;;2.43;;
18395;SDS011;76377;45.194;5.734;2024-03-02T11:47:12;2.10;;;1.90;;
18395;SDS011;76377;45.194;5.734;2024-03-02T11:49:44;2.37;;;1.67;;
18395;SDS011;76377;45.194;5.734;2024-03-02T11:52:12;2.10;;;1.83;;
18395;SDS011;76377;45.194;5.734;2024-03-02T11:54:41;2.07;;;1.60;;
18395;SDS011;76377;45.194;5.734;2024-03-02T11:57:15;2.10;;;1.90;;
18395;SDS011;76377;45.194;5.734;2024-03-02T11:59:44;3.33;;;1.77;;
18395;SDS011;76377;45.194;5.734;2024-03-02T12:02:15;2.07;;;1.67;;
18395;SDS011;76377;45.194;5.734;2024-03-02T12:04:46;2.10;;;1.90;;
18395;SDS011;76377;45.194;5.734;2024-03-02T12:07:18;2.50;;;1.50;;
18395;SDS011;76377;45.194;5.734;2024-03-02T12:09:47;1.50;;;1.40;;
18395;SDS011;76377;45.194;5.734;2024-03-02T12:12:16;2.60;;;1.90;;
18395;SDS011;76377;45.194;5.734;2024-03-02T12:14:50;2.23;;;1.93;;
18395;SDS011;76377;45.194;5.734;2024-03-02T12:17:17;1.73;;;1.63;;
18395;SDS011;76377;45.194;5.734;2024-03-02T12:19:44;2.00;;;1.80;;
18395;SDS011;76377;45.194;5.734;2024-03-02T12:22:11;1.90;;;1.80;;
18395;SDS011;76377;45.194;5.734;2024-03-02T12:24:38;2.37;;;1.50;;
18395;SDS011;76377;45.194;5.734;2024-03-02T12:27:06;3.20;;;1.57;;
18395;SDS011;76377;45.194;5.734;2024-03-02T12:29:34;1.70;;;1.60;;
18395;SDS011;76377;45.194;5.734;2024-03-02T12:32:02;1.40;;;1.30;;
18395;SDS011;76377;45.194;5.734;2024-03-02T12:34:29;1.53;;;1.20;;
18395;SDS011;76377;45.194;5.734;2024-03-02T12:36:56;0.90;;;0.80;;
18395;SDS011;76377;45.194;5.734;2024-03-02T12:39:23;2.07;;;1.20;;
18395;SDS011;76377;45.194;5.734;2024-03-02T12:41:52;2.03;;;0.80;;
18395;SDS011;76377;45.194;5.734;2024-03-02T12:44:20;1.43;;;0.60;;
18395;SDS011;76377;45.194;5.734;2024-03-02T12:46:49;1.73;;;0.60;;
18395;SDS011;76377;45.194;5.734;2024-03-02T12:49:16;0.90;;;0.60;;
18395;SDS011;76377;45.194;5.734;2024-03-02T12:51:43;1.53;;;0.40;;
18395;SDS011;76377;45.194;5.734;2024-03-02T12:54:16;1.80;;;0.40;;
18395;SDS011;76377;45.194;5.734;2024-03-02T12:56:44;3.70;;;0.40;;
18395;SDS011;76377;45.194;5.734;2024-03-02T12:59:17;0.53;;;0.30;;
18395;SDS011;76377;45.194;5.734;2024-03-02T13:01:51;1.27;;;0.40;;
18395;SDS011;76377;45.194;5.734;2024-03-02T13:04:21;1.13;;;0.50;;
18395;SDS011;76377;45.194;5.734;2024-03-02T13:06:49;1.07;;;0.50;;
18395;SDS011;76377;45.194;5.734;2024-03-02T13:09:18;2.00;;;0.50;;
18395;SDS011;76377;45.194;5.734;2024-03-02T13:11:46;0.40;;;0.30;;
18395;SDS011;76377;45.194;5.734;2024-03-02T13:14:13;0.80;;;0.30;;
18395;SDS011;76377;45.194;5.734;2024-03-02T13:16:40;0.80;;;0.33;;
18395;SDS011;76377;45.194;5.734;2024-03-02T13:19:09;0.30;;;0.30;;
18395;SDS011;76377;45.194;5.734;2024-03-02T13:21:36;0.30;;;0.30;;
18395;SDS011;76377;45.194;5.734;2024-03-02T13:24:04;3.80;;;0.43;;
18395;SDS011;76377;45.194;5.734;2024-03-02T13:26:32;1.27;;;0.60;;
18395;SDS011;76377;45.194;5.734;2024-03-02T13:28:59;0.53;;;0.40;;
18395;SDS011;76377;45.194;5.734;2024-03-02T13:31:26;2.50;;;0.47;;
18395;SDS011;76377;45.194;5.734;2024-03-02T13:33:53;1.17;;;0.43;;
18395;SDS011;76377;45.194;5.734;2024-03-02T13:36:22;0.50;;;0.40;;
18395;SDS011;76377;45.194;5.734;2024-03-02T13:38:49;0.40;;;0.30;;
18395;SDS011;76377;45.194;5.734;2024-03-02T13:41:16;0.87;;;0.50;;
18395;SDS011;76377;45.194;5.734;2024-03-02T13:43:43;1.43;;;0.50;;
18395;SDS011;76377;45.194;5.734;2024-03-02T13:46:10;0.40;;;0.30;;
18395;SDS011;76377;45.194;5.734;2024-03-02T13:48:37;0.67;;;0.50;;
18395;SDS011;76377;45.194;5.734;2024-03-02T13:51:05;1.43;;;0.50;;
18395;SDS011;76377;45.194;5.734;2024-03-02T13:53:33;1.03;;;0.90;;
18395;SDS011;76377;45.194;5.734;2024-03-02T13:56:01;0.50;;;0.40;;
18395;SDS011;76377;45.194;5.734;2024-03-02T13:58:29;1.07;;;0.67;;
18395;SDS011;76377;45.194;5.734;2024-03-02T14:00:57;0.60;;;0.57;;
18395;SDS011;76377;45.194;5.734;2024-03-02T14:03:26;0.40;;;0.40;;
18395;SDS011;76377;45.194;5.734;2024-03-02T14:05:53;0.60;;;0.50;;
18395;SDS011;76377;45.194;5.734;2024-03-02T14:08:21;1.00;;;0.37;;
18395;SDS011;76377;45.194;5.734;2024-03-02T14:10:49;2.67;;;0.63;;
18395;SDS011;76377;45.194;5.734;2024-03-02T14:13:17;1.67;;;0.60;;
18395;SDS011;76377;45.194;5.734;2024-03-02T14:15:44;0.77;;;0.60;;
18395;SDS011;76377;45.194;5.734;2024-03-02T14:18:11;1.20;;;0.50;;
18395;SDS011;76377;45.194;5.734;2024-03-02T14:20:38;1.40;;;0.53;;
18395;SDS011;76377;45.194;5.734;2024-03-02T14:23:07;0.97;;;0.60;;
18395;SDS011;76377;45.194;5.734;2024-03-02T14:25:35;0.63;;;0.53;;
18395;SDS011;76377;45.194;5.734;2024-03-02T14:28:04;1.43;;;0.60;;
18395;SDS011;76377;45.194;5.734;2024-03-02T14:30:31;1.30;;;0.80;;
18395;SDS011;76377;45.194;5.734;2024-03-02T14:32:59;2.73;;;1.03;;
18395;SDS011;76377;45.194;5.734;2024-03-02T14:35:26;2.50;;;0.60;;
18395;SDS011;76377;45.194;5.734;2024-03-02T14:37:53;0.87;;;0.60;;
18395;SDS011;76377;45.194;5.734;2024-03-02T14:40:22;0.80;;;0.63;;
18395;SDS011;76377;45.194;5.734;2024-03-02T14:42:52;0.70;;;0.50;;
18395;SDS011;76377;45.194;5.734;2024-03-02T14:45:20;1.10;;;0.50;;
18395;SDS011;76377;45.194;5.734;2024-03-02T14:47:49;0.60;;;0.60;;
18395;SDS011;76377;45.194;5.734;2024-03-02T14:50:16;2.97;;;0.70;;
18395;SDS011;76377;45.194;5.734;2024-03-02T14:52:44;1.43;;;0.70;;
18395;SDS011;76377;45.194;5.734;2024-03-02T14:55:11;1.57;;;0.60;;